Time;durP1;ratioP1;P1;durP2;ratioP2;P2;SDS_P1;SDS_P2;PMS_P1;PMS_P2;Temp;Humidity;BMP_temperature;BMP_pressure;BME280_temperature;BME280_humidity;BME280_pressure;Samples;Min_cycle;Max_cycle;Signal;HPM_P1;HPM_P2
2022/06/26 00:00:07;;;;;;;;;;;19.60;99.90;;;;;;5030628;28;20293;-69
2022/06/26 00:02:32;;;;;;;;;;;19.60;99.90;;;;;;5030212;28;19927;-69
2022/06/26 00:04:57;;;;;;;;;;;19.60;99.90;;;;;;5030421;28;19929;-69
2022/06/26 00:07:23;;;;;;;;;;;19.60;99.90;;;;;;5029204;28;19971;-68
2022/06/26 00:09:49;;;;;;;;;;;19.60;99.90;;;;;;5029325;28;20312;-69
2022/06/26 00:12:15;;;;;;;;;;;19.50;99.90;;;;;;5029182;28;19937;-69
2022/06/26 00:14:40;;;;;;;;;;;19.50;99.90;;;;;;5028945;28;19921;-69
2022/06/26 00:17:06;;;;;;;;;;;19.50;99.90;;;;;;5029076;28;20403;-69
2022/06/26 00:19:33;;;;;;;;;;;19.50;99.90;;;;;;5030452;28;19925;-69
2022/06/26 00:21:58;;;;;;;;;;;19.50;99.90;;;;;;5030406;28;19948;-69
2022/06/26 00:24:24;;;;;;;;;;;19.50;99.90;;;;;;5028627;28;20528;-69
2022/06/26 00:26:49;;;;;;;;;;;19.40;99.90;;;;;;5028493;28;19921;-69
2022/06/26 00:29:15;;;;;;;;;;;19.40;99.90;;;;;;5029017;28;19922;-69
2022/06/26 00:31:40;;;;;;;;;;;19.40;99.90;;;;;;5028884;28;20330;-69
2022/06/26 00:34:06;;;;;;;;;;;19.40;99.90;;;;;;5031282;28;19952;-69
2022/06/26 00:36:32;;;;;;;;;;;19.40;99.90;;;;;;5034398;28;19921;-69
2022/06/26 00:38:57;;;;;;;;;;;19.40;99.90;;;;;;5033143;28;19932;-69
2022/06/26 00:41:22;;;;;;;;;;;19.40;99.90;;;;;;5034048;28;19925;-69
2022/06/26 00:43:48;;;;;;;;;;;19.40;99.90;;;;;;5032198;28;19971;-69
2022/06/26 00:46:14;;;;;;;;;;;19.40;99.90;;;;;;5033992;28;20428;-69
2022/06/26 00:48:39;;;;;;;;;;;19.40;99.90;;;;;;5033844;28;20320;-69
2022/06/26 00:51:05;;;;;;;;;;;19.40;99.90;;;;;;5033847;28;20620;-68
2022/06/26 00:53:31;;;;;;;;;;;19.40;99.90;;;;;;5032117;28;19921;-68
2022/06/26 00:55:56;;;;;;;;;;;19.40;99.90;;;;;;5032376;28;19921;-69
2022/06/26 00:58:22;;;;;;;;;;;19.40;99.90;;;;;;5032234;28;19948;-70
2022/06/26 01:00:47;;;;;;;;;;;19.40;99.90;;;;;;5032349;28;19925;-69
2022/06/26 01:03:13;;;;;;;;;;;19.40;99.90;;;;;;5031834;28;19925;-69
2022/06/26 01:05:39;;;;;;;;;;;19.30;99.90;;;;;;5032482;28;20424;-69
2022/06/26 01:08:06;;;;;;;;;;;19.30;99.90;;;;;;5032189;28;19921;-69
2022/06/26 01:10:31;;;;;;;;;;;19.20;99.90;;;;;;5033614;28;19921;-70
2022/06/26 01:12:58;;;;;;;;;;;19.20;99.90;;;;;;5048575;28;19929;-69
2022/06/26 01:15:24;;;;;;;;;;;19.20;99.90;;;;;;5033611;28;19921;-69
2022/06/26 01:17:50;;;;;;;;;;;19.30;99.90;;;;;;5033298;28;19996;-69
2022/06/26 01:20:15;;;;;;;;;;;19.50;99.90;;;;;;5048866;28;19931;-70
2022/06/26 01:22:40;;;;;;;;;;;19.60;99.90;;;;;;5031628;28;19921;-69
2022/06/26 01:25:06;;;;;;;;;;;19.60;99.90;;;;;;5033238;28;19975;-69
2022/06/26 01:27:38;;;;;;;;;;;19.60;99.90;;;;;;5015268;28;20320;-69
2022/06/26 01:30:04;;;;;;;;;;;19.70;99.90;;;;;;5032691;28;19925;-69
2022/06/26 01:32:30;;;;;;;;;;;19.70;99.90;;;;;;5031492;28;19948;-70
2022/06/26 01:34:55;;;;;;;;;;;19.80;99.90;;;;;;5032883;28;20289;-68
2022/06/26 01:37:23;;;;;;;;;;;19.80;99.90;;;;;;5031601;28;19921;-68
2022/06/26 01:39:49;;;;;;;;;;;19.90;99.90;;;;;;5032771;28;19931;-68
2022/06/26 01:42:14;;;;;;;;;;;19.90;99.90;;;;;;5032721;28;19948;-68
2022/06/26 01:44:40;;;;;;;;;;;19.90;99.90;;;;;;5032511;28;19968;-68
2022/06/26 01:47:05;;;;;;;;;;;20.00;99.90;;;;;;5031787;28;19921;-68
2022/06/26 01:49:31;;;;;;;;;;;20.00;99.90;;;;;;5032809;28;19928;-69
2022/06/26 01:51:56;;;;;;;;;;;20.00;99.90;;;;;;5031296;28;19921;-68
2022/06/26 01:54:22;;;;;;;;;;;20.00;99.90;;;;;;5032174;28;19921;-68
2022/06/26 01:56:47;;;;;;;;;;;20.00;99.90;;;;;;5032480;28;20412;-67
2022/06/26 01:59:13;;;;;;;;;;;20.00;99.90;;;;;;5031053;28;20027;-68
2022/06/26 02:01:38;;;;;;;;;;;20.00;99.90;;;;;;5032508;28;19925;-68
2022/06/26 02:04:04;;;;;;;;;;;20.00;99.90;;;;;;5032227;28;20000;-68
2022/06/26 02:06:29;;;;;;;;;;;20.00;99.90;;;;;;5014491;28;19968;-68
2022/06/26 02:08:54;;;;;;;;;;;19.90;99.90;;;;;;5032457;28;19951;-69
2022/06/26 02:14:04;;;;;;;;;;;19.80;99.90;;;;;;5030587;28;19929;-72
2022/06/26 02:16:30;;;;;;;;;;;19.70;99.90;;;;;;5031102;28;20289;-72
2022/06/26 02:18:57;;;;;;;;;;;19.70;99.90;;;;;;5030971;28;20405;-75
2022/06/26 02:21:24;;;;;;;;;;;19.60;99.90;;;;;;5030843;28;19972;-75
2022/06/26 02:23:51;;;;;;;;;;;19.50;99.90;;;;;;5030288;28;19970;-74
2022/06/26 02:26:17;;;;;;;;;;;19.50;99.90;;;;;;5030919;28;20334;-73
2022/06/26 02:28:43;;;;;;;;;;;19.40;99.90;;;;;;5030642;28;19921;-73
2022/06/26 02:31:09;;;;;;;;;;;19.40;99.90;;;;;;5030706;28;20019;-73
2022/06/26 02:33:35;;;;;;;;;;;19.40;99.90;;;;;;5030265;28;20480;-73
2022/06/26 02:36:01;;;;;;;;;;;19.40;99.90;;;;;;5030485;28;19921;-74
2022/06/26 02:38:26;;;;;;;;;;;19.40;99.90;;;;;;5030618;28;20358;-74
2022/06/26 02:40:52;;;;;;;;;;;19.40;99.90;;;;;;5030221;28;19925;-73
2022/06/26 02:43:24;;;;;;;;;;;19.50;99.90;;;;;;5030164;28;20432;-73
2022/06/26 02:45:50;;;;;;;;;;;19.40;99.90;;;;;;5030372;28;19921;-72
2022/06/26 02:48:16;;;;;;;;;;;19.40;99.90;;;;;;5030334;28;19921;-72
2022/06/26 02:50:42;;;;;;;;;;;19.40;99.90;;;;;;5014031;28;20269;-72
2022/06/26 02:53:08;;;;;;;;;;;19.40;99.90;;;;;;5030152;28;19925;-72
2022/06/26 02:55:33;;;;;;;;;;;19.30;99.90;;;;;;5030656;28;19929;-71
2022/06/26 02:57:58;;;;;;;;;;;19.30;99.90;;;;;;5030138;28;20019;-71
2022/06/26 03:00:24;;;;;;;;;;;19.20;99.90;;;;;;5030223;28;19925;-71
2022/06/26 03:02:50;;;;;;;;;;;19.20;99.90;;;;;;5030201;28;19925;-71
2022/06/26 03:05:16;;;;;;;;;;;19.10;99.90;;;;;;5029987;28;19921;-71
2022/06/26 03:07:41;;;;;;;;;;;19.10;99.90;;;;;;5013502;28;19928;-71
2022/06/26 03:10:07;;;;;;;;;;;19.10;99.90;;;;;;5029398;28;20025;-71
2022/06/26 03:12:33;;;;;;;;;;;19.10;99.90;;;;;;5027019;28;19917;-71
2022/06/26 03:14:58;;;;;;;;;;;19.00;99.90;;;;;;5029615;28;19944;-71
2022/06/26 03:17:24;;;;;;;;;;;19.00;99.90;;;;;;5030144;28;19924;-70
2022/06/26 03:19:50;;;;;;;;;;;19.00;99.90;;;;;;5028658;28;19924;-70
2022/06/26 03:22:16;;;;;;;;;;;19.00;99.90;;;;;;5029062;28;20563;-70
2022/06/26 03:24:42;;;;;;;;;;;19.00;99.90;;;;;;5030926;28;20341;-71
2022/06/26 03:27:07;;;;;;;;;;;19.00;99.90;;;;;;5029642;28;20408;-71
2022/06/26 03:29:33;;;;;;;;;;;19.00;99.90;;;;;;5029570;28;19972;-70
2022/06/26 03:31:58;;;;;;;;;;;19.00;99.90;;;;;;5029172;28;19932;-71
2022/06/26 03:34:24;;;;;;;;;;;19.00;99.90;;;;;;5029144;28;19921;-71
2022/06/26 03:36:49;;;;;;;;;;;18.90;99.90;;;;;;5029499;28;20428;-70
2022/06/26 03:39:15;;;;;;;;;;;18.80;99.90;;;;;;5029446;28;19932;-69
2022/06/26 03:41:40;;;;;;;;;;;18.80;99.90;;;;;;5029470;28;19957;-70
2022/06/26 03:44:06;;;;;;;;;;;18.80;99.90;;;;;;5029008;28;20497;-70
2022/06/26 03:46:32;;;;;;;;;;;18.80;99.90;;;;;;5029487;28;19921;-70
2022/06/26 03:48:58;;;;;;;;;;;18.80;99.90;;;;;;5029685;28;20270;-70
2022/06/26 03:51:23;;;;;;;;;;;18.80;99.90;;;;;;5029415;28;19932;-70
2022/06/26 03:53:49;;;;;;;;;;;18.70;99.90;;;;;;5030447;28;19928;-69
2022/06/26 03:56:14;;;;;;;;;;;18.70;99.90;;;;;;5012948;28;20520;-70
2022/06/26 03:58:40;;;;;;;;;;;18.60;99.90;;;;;;5029378;28;19932;-70
2022/06/26 04:01:05;;;;;;;;;;;18.70;99.90;;;;;;5029212;28;20011;-69
2022/06/26 04:03:31;;;;;;;;;;;18.70;99.90;;;;;;5028910;28;20266;-71
2022/06/26 04:05:56;;;;;;;;;;;18.60;99.90;;;;;;5029320;28;19921;-71
2022/06/26 04:08:22;;;;;;;;;;;18.60;99.90;;;;;;5029343;28;19921;-70
2022/06/26 04:10:47;;;;;;;;;;;18.60;99.90;;;;;;5033249;28;19932;-68
2022/06/26 04:13:13;;;;;;;;;;;18.60;99.90;;;;;;5032832;28;20416;-70
2022/06/26 04:15:40;;;;;;;;;;;18.60;99.90;;;;;;5034507;28;19991;-70
2022/06/26 04:18:06;;;;;;;;;;;18.60;99.90;;;;;;5032965;28;19928;-70
2022/06/26 04:20:32;;;;;;;;;;;18.60;99.90;;;;;;5016530;28;19929;-70
2022/06/26 04:22:58;;;;;;;;;;;18.60;99.90;;;;;;5032636;28;19925;-70
2022/06/26 04:25:24;;;;;;;;;;;18.60;99.90;;;;;;5033000;28;19932;-70
2022/06/26 04:27:50;;;;;;;;;;;18.60;99.90;;;;;;5033014;28;19929;-70
2022/06/26 04:30:15;;;;;;;;;;;18.60;99.90;;;;;;5034118;28;20000;-70
2022/06/26 04:32:41;;;;;;;;;;;18.60;99.90;;;;;;5032768;28;19972;-70
2022/06/26 04:35:06;;;;;;;;;;;18.60;99.90;;;;;;5016428;28;20436;-70
2022/06/26 04:37:32;;;;;;;;;;;18.60;99.90;;;;;;5034278;28;20536;-70
2022/06/26 04:39:57;;;;;;;;;;;18.60;99.90;;;;;;5034089;28;20458;-69
2022/06/26 04:42:23;;;;;;;;;;;18.60;99.90;;;;;;5032380;28;20028;-69
2022/06/26 04:44:48;;;;;;;;;;;18.60;99.90;;;;;;5033870;28;19925;-70
2022/06/26 04:47:14;;;;;;;;;;;18.60;99.90;;;;;;5034101;28;19975;-70
2022/06/26 04:49:39;;;;;;;;;;;18.60;99.90;;;;;;5032864;28;20349;-70
2022/06/26 04:52:05;;;;;;;;;;;18.60;99.90;;;;;;5033788;28;19925;-67
2022/06/26 04:54:30;;;;;;;;;;;18.60;99.90;;;;;;5033622;28;19921;-67
2022/06/26 04:56:56;;;;;;;;;;;18.80;99.90;;;;;;5032232;28;19922;-70
2022/06/26 04:59:21;;;;;;;;;;;18.90;99.90;;;;;;5032241;28;19932;-69
2022/06/26 05:01:46;;;;;;;;;;;19.00;99.90;;;;;;5033683;28;20377;-70
2022/06/26 05:04:12;;;;;;;;;;;19.00;99.90;;;;;;5032129;28;20027;-70
2022/06/26 05:06:37;;;;;;;;;;;18.90;99.90;;;;;;5033563;28;20369;-69
2022/06/26 05:09:03;;;;;;;;;;;18.90;99.90;;;;;;5033531;28;19971;-70
2022/06/26 05:11:28;;;;;;;;;;;18.90;99.90;;;;;;5032162;28;19932;-69
2022/06/26 05:13:54;;;;;;;;;;;18.90;99.90;;;;;;5032100;28;20340;-70
2022/06/26 05:16:19;;;;;;;;;;;19.00;99.90;;;;;;5033558;28;19928;-70
2022/06/26 05:18:45;;;;;;;;;;;19.00;99.90;;;;;;5033572;28;20397;-70
2022/06/26 05:21:10;;;;;;;;;;;19.20;99.90;;;;;;5032935;28;19928;-70
2022/06/26 05:23:36;;;;;;;;;;;19.30;99.90;;;;;;5033010;28;20007;-70
2022/06/26 05:26:02;;;;;;;;;;;19.40;99.90;;;;;;5033155;28;19921;-69
2022/06/26 05:28:27;;;;;;;;;;;19.40;99.90;;;;;;5031764;28;19932;-69
2022/06/26 05:30:53;;;;;;;;;;;19.40;99.90;;;;;;5031782;28;19925;-70
2022/06/26 05:33:18;;;;;;;;;;;19.30;99.90;;;;;;5031658;28;19925;-69
2022/06/26 05:35:44;;;;;;;;;;;19.30;99.90;;;;;;5031882;28;19972;-69
2022/06/26 05:38:09;;;;;;;;;;;19.10;99.90;;;;;;5031490;28;20016;-70
2022/06/26 05:40:35;;;;;;;;;;;19.10;99.90;;;;;;5031615;28;19966;-70
2022/06/26 05:43:00;;;;;;;;;;;19.00;99.90;;;;;;5032192;28;19922;-69
2022/06/26 05:45:25;;;;;;;;;;;19.10;99.90;;;;;;5033069;28;19921;-70
2022/06/26 05:47:51;;;;;;;;;;;19.10;99.90;;;;;;5031399;28;20397;-69
2022/06/26 05:50:17;;;;;;;;;;;19.10;99.90;;;;;;5031653;28;19924;-69
2022/06/26 05:52:42;;;;;;;;;;;19.20;99.90;;;;;;5032597;28;20078;-70
2022/06/26 05:55:08;;;;;;;;;;;19.10;99.90;;;;;;5031560;28;20002;-70
2022/06/26 05:57:33;;;;;;;;;;;19.10;99.90;;;;;;5031270;28;19932;-70
2022/06/26 05:59:59;;;;;;;;;;;19.10;99.90;;;;;;5031167;28;19925;-70
2022/06/26 06:02:24;;;;;;;;;;;19.10;99.90;;;;;;5030993;28;20282;-70
2022/06/26 06:04:50;;;;;;;;;;;19.10;99.90;;;;;;5031414;28;20274;-70
2022/06/26 06:07:16;;;;;;;;;;;19.20;99.90;;;;;;5031284;28;19921;-69
2022/06/26 06:09:41;;;;;;;;;;;19.30;99.90;;;;;;5032468;28;20407;-70
2022/06/26 06:12:07;;;;;;;;;;;19.30;99.90;;;;;;5032285;28;19932;-69
2022/06/26 06:14:32;;;;;;;;;;;19.40;99.90;;;;;;5047268;28;19957;-70
2022/06/26 06:17:35;;;;;;;;;;;19.40;99.90;;;;;;5031181;28;19931;-70
2022/06/26 06:19:43;;;;;;;;;;;19.40;99.90;;;;;;5032034;28;19936;-70
2022/06/26 06:22:09;;;;;;;;;;;19.50;99.90;;;;;;5030859;28;19921;-70
2022/06/26 06:24:34;;;;;;;;;;;19.50;99.90;;;;;;5030438;28;19975;-69
2022/06/26 06:27:00;;;;;;;;;;;19.50;99.90;;;;;;5031030;28;20253;-70
2022/06/26 06:29:25;;;;;;;;;;;19.40;99.90;;;;;;5030627;28;19921;-69
2022/06/26 06:31:50;;;;;;;;;;;19.50;99.90;;;;;;5030820;28;19921;-70
2022/06/26 06:34:16;;;;;;;;;;;19.50;99.90;;;;;;5031415;28;19933;-70
2022/06/26 06:36:41;;;;;;;;;;;19.60;99.90;;;;;;5030905;28;20439;-70
2022/06/26 06:39:07;;;;;;;;;;;19.60;99.90;;;;;;5030333;28;20043;-70
2022/06/26 06:41:32;;;;;;;;;;;19.60;99.90;;;;;;5032020;28;19928;-70
2022/06/26 06:43:58;;;;;;;;;;;19.60;99.90;;;;;;5030260;28;19929;-70
2022/06/26 06:46:23;;;;;;;;;;;19.60;99.90;;;;;;5031873;28;19925;-70
2022/06/26 06:48:49;;;;;;;;;;;19.60;99.90;;;;;;5030609;28;19921;-70
2022/06/26 06:51:14;;;;;;;;;;;19.60;99.90;;;;;;5030625;28;19921;-70
2022/06/26 06:53:40;;;;;;;;;;;19.50;99.90;;;;;;5029973;28;19925;-69
2022/06/26 06:56:05;;;;;;;;;;;19.50;99.90;;;;;;5030535;28;19943;-69
2022/06/26 06:58:30;;;;;;;;;;;19.50;99.90;;;;;;5030096;28;19971;-70
2022/06/26 07:00:56;;;;;;;;;;;19.50;99.90;;;;;;5031484;28;19921;-68
2022/06/26 07:03:21;;;;;;;;;;;19.50;99.90;;;;;;5030994;28;19921;-69
2022/06/26 07:05:47;;;;;;;;;;;19.60;99.90;;;;;;5031550;28;20344;-70
2022/06/26 07:08:14;;;;;;;;;;;19.70;99.90;;;;;;5031476;28;19951;-67
2022/06/26 07:10:39;;;;;;;;;;;19.70;99.90;;;;;;5029869;28;19925;-68
2022/06/26 07:13:04;;;;;;;;;;;19.60;99.90;;;;;;5029538;28;19927;-67
2022/06/26 07:15:30;;;;;;;;;;;19.60;99.90;;;;;;5030138;28;20463;-67
2022/06/26 07:17:55;;;;;;;;;;;19.70;99.90;;;;;;5030981;28;19928;-68
2022/06/26 07:20:21;;;;;;;;;;;19.90;99.90;;;;;;5029607;28;19925;-68
2022/06/26 07:22:46;;;;;;;;;;;19.90;99.90;;;;;;5029451;28;19970;-68
2022/06/26 07:25:12;;;;;;;;;;;20.00;99.90;;;;;;5030990;28;19975;-68
2022/06/26 07:27:38;;;;;;;;;;;20.00;99.90;;;;;;5029705;28;19971;-68
2022/06/26 07:30:03;;;;;;;;;;;20.10;99.90;;;;;;5030704;28;19932;-68
2022/06/26 07:32:29;;;;;;;;;;;20.20;99.90;;;;;;5029314;28;19932;-69
2022/06/26 07:34:54;;;;;;;;;;;20.10;99.90;;;;;;5031160;28;20003;-67
2022/06/26 07:37:20;;;;;;;;;;;20.20;99.90;;;;;;5031014;28;19921;-68
2022/06/26 07:39:45;;;;;;;;;;;20.20;99.90;;;;;;5030906;28;19925;-68
2022/06/26 07:42:11;;;;;;;;;;;20.30;99.90;;;;;;5030641;28;19991;-68
2022/06/26 07:44:37;;;;;;;;;;;20.40;99.90;;;;;;5030374;28;20000;-68
2022/06/26 07:47:02;;;;;;;;;;;20.60;99.90;;;;;;5029414;28;19921;-68
2022/06/26 07:49:28;;;;;;;;;;;20.60;99.90;;;;;;5029456;28;19921;-68
2022/06/26 07:51:53;;;;;;;;;;;20.70;99.90;;;;;;5030851;28;19998;-69
2022/06/26 07:54:19;;;;;;;;;;;20.80;99.90;;;;;;5030367;28;19987;-68
2022/06/26 07:56:44;;;;;;;;;;;20.90;99.90;;;;;;5030817;28;19959;-69
2022/06/26 07:59:10;;;;;;;;;;;21.00;99.90;;;;;;5030561;28;20463;-69
2022/06/26 08:01:35;;;;;;;;;;;20.90;99.90;;;;;;5030753;28;20446;-69
2022/06/26 08:04:01;;;;;;;;;;;20.90;99.90;;;;;;5030458;28;19921;-69
2022/06/26 08:06:27;;;;;;;;;;;20.90;99.90;;;;;;5029512;28;19925;-69
2022/06/26 08:08:53;;;;;;;;;;;21.10;99.90;;;;;;5021214;28;20012;-69
2022/06/26 08:11:19;;;;;;;;;;;21.20;99.90;;;;;;5009778;28;20055;-69
2022/06/26 08:13:44;;;;;;;;;;;21.20;99.90;;;;;;5025436;28;19921;-69
2022/06/26 08:16:10;;;;;;;;;;;21.10;99.90;;;;;;5010869;28;19922;-68
2022/06/26 08:18:36;;;;;;;;;;;21.00;99.90;;;;;;5009519;28;19933;-69
2022/06/26 08:22:00;;;;;;;;;;;20.90;99.90;;;;;;5025945;28;19921;-68
2022/06/26 08:23:47;;;;;;;;;;;20.90;99.90;;;;;;5010328;28;20413;-68
2022/06/26 08:26:12;;;;;;;;;;;20.90;99.90;;;;;;5025772;28;19922;-68
2022/06/26 08:28:38;;;;;;;;;;;21.10;99.90;;;;;;5009353;28;19921;-68
2022/06/26 08:31:03;;;;;;;;;;;21.20;99.90;;;;;;5009303;28;19932;-68
2022/06/26 08:33:29;;;;;;;;;;;21.40;99.90;;;;;;5025413;28;20028;-68
2022/06/26 08:35:54;;;;;;;;;;;21.40;99.90;;;;;;5010573;28;19971;-69
2022/06/26 08:38:20;;;;;;;;;;;21.50;99.90;;;;;;4991498;28;20433;-68
2022/06/26 08:40:45;;;;;;;;;;;21.40;99.90;;;;;;4990940;28;19985;-68
2022/06/26 08:43:12;;;;;;;;;;;21.40;99.90;;;;;;4990694;28;19925;-68
2022/06/26 08:45:40;;;;;;;;;;;21.40;99.90;;;;;;4990959;28;20100;-68
2022/06/26 08:48:06;;;;;;;;;;;21.50;99.90;;;;;;4991105;28;19929;-69
2022/06/26 08:50:32;;;;;;;;;;;21.60;99.90;;;;;;4990955;28;20001;-69
2022/06/26 08:52:59;;;;;;;;;;;21.60;99.90;;;;;;5005465;28;20375;-69
2022/06/26 08:55:25;;;;;;;;;;;21.60;99.90;;;;;;5007785;28;19969;-69
2022/06/26 08:57:51;;;;;;;;;;;21.70;99.90;;;;;;5009673;28;19968;-68
2022/06/26 09:00:16;;;;;;;;;;;21.80;99.90;;;;;;4994532;28;19925;-68
2022/06/26 09:02:42;;;;;;;;;;;22.10;99.90;;;;;;5009047;28;19929;-68
2022/06/26 09:05:08;;;;;;;;;;;22.10;99.90;;;;;;4994322;28;20389;-68
2022/06/26 09:07:44;;;;;;;;;;;22.20;99.90;;;;;;5009337;28;19945;-69
2022/06/26 09:10:10;;;;;;;;;;;22.30;99.90;;;;;;5010319;28;19926;-69
2022/06/26 09:12:36;;;;;;;;;;;22.40;99.90;;;;;;4993832;28;19932;-69
2022/06/26 09:15:02;;;;;;;;;;;22.50;99.90;;;;;;5009043;28;19922;-69
2022/06/26 09:17:27;;;;;;;;;;;22.30;99.90;;;;;;4976765;28;20406;-69
2022/06/26 09:19:54;;;;;;;;;;;22.30;99.90;;;;;;5009011;28;19937;-70
2022/06/26 09:22:22;;;;;;;;;;;22.40;99.90;;;;;;5008493;28;20378;-69
2022/06/26 09:24:53;;;;;;;;;;;22.20;99.90;;;;;;4992437;28;19930;-69
2022/06/26 09:27:19;;;;;;;;;;;22.30;99.90;;;;;;5009122;28;19929;-69
2022/06/26 09:29:48;;;;;;;;;;;22.30;99.90;;;;;;5008794;28;19996;-69
2022/06/26 09:32:14;;;;;;;;;;;22.50;99.90;;;;;;5008322;28;20405;-68
2022/06/26 09:34:47;;;;;;;;;;;22.50;99.90;;;;;;4993784;28;19921;-69
2022/06/26 09:37:13;;;;;;;;;;;22.60;99.90;;;;;;4992138;28;19928;-69
2022/06/26 09:39:39;;;;;;;;;;;22.70;99.90;;;;;;4993702;28;20476;-69
2022/06/26 09:42:17;;;;;;;;;;;22.80;99.90;;;;;;5008016;28;20321;-69
2022/06/26 09:44:44;;;;;;;;;;;22.80;99.90;;;;;;5008243;28;20294;-69
2022/06/26 09:47:21;;;;;;;;;;;23.00;99.90;;;;;;5008901;28;20390;-69
2022/06/26 09:49:46;;;;;;;;;;;23.00;99.90;;;;;;4976408;28;20005;-69
2022/06/26 09:52:12;;;;;;;;;;;23.00;99.90;;;;;;4993368;28;20008;-70
2022/06/26 09:54:38;;;;;;;;;;;23.10;99.90;;;;;;5008538;28;19987;-70
2022/06/26 09:57:03;;;;;;;;;;;22.70;99.90;;;;;;5008292;28;19921;-70
2022/06/26 09:59:29;;;;;;;;;;;22.80;99.90;;;;;;5027324;28;20064;-69
2022/06/26 10:07:24;;;;;;;;;;;23.00;99.90;;;;;;5011081;28;19925;-68
2022/06/26 10:09:50;;;;;;;;;;;23.00;99.90;;;;;;5012834;28;20357;-68
2022/06/26 10:12:16;;;;;;;;;;;22.90;99.90;;;;;;5012614;28;20400;-69
2022/06/26 10:14:43;;;;;;;;;;;23.00;99.90;;;;;;5011196;28;19965;-68
2022/06/26 10:17:08;;;;;;;;;;;22.90;99.90;;;;;;5012575;28;19925;-68
2022/06/26 10:19:43;;;;;;;;;;;22.90;99.90;;;;;;5027530;28;20008;-69
2022/06/26 10:22:09;;;;;;;;;;;22.90;99.90;;;;;;5027535;28;20381;-69
2022/06/26 10:24:34;;;;;;;;;;;22.80;99.90;;;;;;5011045;28;19925;-68
2022/06/26 10:27:01;;;;;;;;;;;22.80;99.90;;;;;;4994727;28;19921;-69
2022/06/26 10:29:37;;;;;;;;;;;23.00;99.90;;;;;;5011195;28;20005;-68
2022/06/26 10:32:03;;;;;;;;;;;22.90;99.90;;;;;;5012044;28;19999;-68
2022/06/26 10:34:28;;;;;;;;;;;22.90;99.90;;;;;;5010567;28;19921;-69
2022/06/26 10:37:10;;;;;;;;;;;22.80;99.90;;;;;;5010918;28;19932;-69
2022/06/26 10:39:38;;;;;;;;;;;22.90;99.90;;;;;;5012068;28;19936;-69
2022/06/26 10:44:54;;;;;;;;;;;22.60;99.90;;;;;;5010752;28;20056;-68
2022/06/26 10:47:20;;;;;;;;;;;22.60;99.90;;;;;;5027232;28;20059;-68
2022/06/26 10:49:54;;;;;;;;;;;22.60;99.90;;;;;;5012122;28;19987;-68
2022/06/26 10:52:27;;;;;;;;;;;22.60;99.90;;;;;;5011826;28;20419;-69
2022/06/26 10:54:53;;;;;;;;;;;22.70;99.90;;;;;;5027001;28;19921;-68
2022/06/26 10:57:24;;;;;;;;;;;22.70;99.90;;;;;;5010496;28;19929;-69
2022/06/26 10:59:50;;;;;;;;;;;22.60;99.90;;;;;;5010475;28;20437;-69
2022/06/26 11:02:15;;;;;;;;;;;22.50;99.90;;;;;;5011657;28;19928;-69
2022/06/26 11:04:48;;;;;;;;;;;22.50;99.90;;;;;;5011692;28;19921;-69
2022/06/26 11:07:14;;;;;;;;;;;22.60;99.90;;;;;;5010654;28;19929;-68
2022/06/26 11:09:40;;;;;;;;;;;22.80;99.90;;;;;;5026310;28;19929;-70
2022/06/26 11:12:05;;;;;;;;;;;22.80;99.90;;;;;;5011525;28;19922;-68
2022/06/26 11:14:31;;;;;;;;;;;23.00;99.90;;;;;;5010275;28;19928;-67
2022/06/26 11:16:56;;;;;;;;;;;23.00;99.90;;;;;;5026492;28;19964;-68
2022/06/26 11:19:22;;;;;;;;;;;22.90;99.90;;;;;;5011120;28;19926;-68
2022/06/26 11:21:47;;;;;;;;;;;22.90;99.90;;;;;;5026518;28;20313;-68
2022/06/26 11:24:13;;;;;;;;;;;22.90;99.90;;;;;;5010897;28;19968;-68
2022/06/26 11:26:39;;;;;;;;;;;23.00;99.90;;;;;;5011377;28;20009;-68
2022/06/26 11:29:05;;;;;;;;;;;23.00;99.90;;;;;;5011191;28;20008;-68
2022/06/26 11:31:31;;;;;;;;;;;22.90;99.90;;;;;;5010975;28;19928;-68
2022/06/26 11:34:07;;;;;;;;;;;22.90;99.90;;;;;;5010952;28;19967;-68
2022/06/26 11:36:32;;;;;;;;;;;22.80;99.90;;;;;;5011480;28;20309;-68
2022/06/26 11:38:59;;;;;;;;;;;23.00;99.90;;;;;;5011295;28;19933;-68
2022/06/26 11:41:24;;;;;;;;;;;22.90;99.90;;;;;;5010173;28;20309;-68
2022/06/26 11:43:51;;;;;;;;;;;22.90;99.90;;;;;;5026123;28;19972;-69
2022/06/26 11:46:17;;;;;;;;;;;23.00;99.90;;;;;;4993445;28;19960;-69
2022/06/26 11:48:42;;;;;;;;;;;23.00;99.90;;;;;;5010020;28;19961;-68
2022/06/26 11:51:09;;;;;;;;;;;22.90;99.90;;;;;;5026560;28;19922;-69
2022/06/26 11:53:35;;;;;;;;;;;23.00;99.90;;;;;;5009477;28;20020;-69
2022/06/26 11:56:02;;;;;;;;;;;22.90;99.90;;;;;;5026352;28;20368;-68
2022/06/26 11:58:31;;;;;;;;;;;23.00;99.90;;;;;;5009968;28;20289;-68
2022/06/26 12:01:06;;;;;;;;;;;23.10;99.90;;;;;;5010982;28;20374;-69
2022/06/26 12:03:31;;;;;;;;;;;23.10;99.90;;;;;;5025777;28;19929;-70
2022/06/26 12:05:57;;;;;;;;;;;23.00;99.90;;;;;;5011185;28;19926;-71
2022/06/26 12:08:22;;;;;;;;;;;23.00;99.90;;;;;;5026471;28;19934;-70
2022/06/26 12:10:49;;;;;;;;;;;23.10;99.90;;;;;;5009504;28;19921;-72
2022/06/26 12:13:21;;;;;;;;;;;23.00;99.90;;;;;;5025802;28;19928;-73
2022/06/26 12:15:46;;;;;;;;;;;22.90;99.90;;;;;;5009721;28;20642;-71
2022/06/26 12:18:12;;;;;;;;;;;23.00;99.90;;;;;;5011073;28;19929;-72
2022/06/26 12:20:39;;;;;;;;;;;23.00;99.90;;;;;;5009925;28;19922;-71
2022/06/26 12:23:05;;;;;;;;;;;23.10;99.90;;;;;;5009424;28;20008;-71
2022/06/26 12:25:32;;;;;;;;;;;23.30;99.90;;;;;;5009525;28;19928;-71
2022/06/26 12:27:58;;;;;;;;;;;23.20;99.90;;;;;;5025749;28;19925;-71
2022/06/26 12:30:28;;;;;;;;;;;23.20;99.90;;;;;;5010748;28;19976;-71
2022/06/26 12:32:57;;;;;;;;;;;23.20;99.90;;;;;;5014603;28;19925;-71
2022/06/26 12:35:24;;;;;;;;;;;23.20;99.90;;;;;;5014598;28;19922;-70
2022/06/26 12:37:49;;;;;;;;;;;23.20;99.90;;;;;;5028717;28;19983;-70
2022/06/26 12:40:15;;;;;;;;;;;22.90;99.90;;;;;;5009757;28;19965;-70
2022/06/26 12:42:40;;;;;;;;;;;22.90;99.90;;;;;;5004037;28;20325;-68
2022/06/26 12:45:06;;;;;;;;;;;22.90;99.90;;;;;;4996879;28;19944;-68
2022/06/26 12:47:32;;;;;;;;;;;22.90;99.90;;;;;;4998677;28;20302;-67
2022/06/26 12:49:58;;;;;;;;;;;23.00;99.90;;;;;;5003714;28;19985;-68
2022/06/26 12:52:24;;;;;;;;;;;23.20;99.90;;;;;;4985295;28;19930;-67
2022/06/26 12:54:50;;;;;;;;;;;23.20;99.90;;;;;;5006842;28;20397;-68
2022/06/26 12:57:15;;;;;;;;;;;23.30;99.90;;;;;;5005566;28;19932;-69
2022/06/26 12:59:41;;;;;;;;;;;23.20;99.90;;;;;;5004647;28;20305;-67
2022/06/26 13:02:06;;;;;;;;;;;23.20;99.90;;;;;;5004537;28;19925;-67
2022/06/26 13:04:32;;;;;;;;;;;23.30;99.90;;;;;;5024762;28;19922;-68
2022/06/26 13:06:57;;;;;;;;;;;23.30;99.90;;;;;;5012807;28;19929;-68
2022/06/26 13:09:23;;;;;;;;;;;23.30;99.90;;;;;;5012539;28;20024;-68
2022/06/26 13:11:48;;;;;;;;;;;23.30;99.90;;;;;;5013912;28;20034;-67
2022/06/26 13:14:14;;;;;;;;;;;23.30;99.90;;;;;;5013659;28;19926;-66
2022/06/26 13:16:40;;;;;;;;;;;23.20;99.90;;;;;;5013871;28;20290;-67
2022/06/26 13:19:06;;;;;;;;;;;23.30;99.90;;;;;;5007603;28;19925;-71
2022/06/26 13:23:08;;;;;;;8.38;2.97;;;23.40;99.90;;;;;;5127659;27;20344;-66
2022/06/26 13:25:33;;;;;;;6.18;2.65;;;23.40;99.90;;;;;;5116786;27;20035;-67
2022/06/26 13:27:59;;;;;;;5.90;2.80;;;23.30;99.90;;;;;;5117143;28;20147;-67
2022/06/26 13:30:25;;;;;;;5.13;2.33;;;23.20;99.90;;;;;;5116927;27;20444;-66
2022/06/26 13:32:52;;;;;;;6.45;2.60;;;23.20;99.90;;;;;;5118679;28;20074;-67
2022/06/26 13:35:17;;;;;;;6.28;2.55;;;23.20;99.90;;;;;;5117498;28;20050;-66
2022/06/26 13:37:43;;;;;;;3.92;2.50;;;23.10;99.90;;;;;;5119534;27;20114;-66
2022/06/26 13:40:09;;;;;;;5.05;2.30;;;23.20;99.90;;;;;;5128300;27;20498;-67
2022/06/26 13:42:35;;;;;;;4.10;2.90;;;23.10;99.90;;;;;;5109487;28;20100;-67
2022/06/26 13:45:01;;;;;;;4.97;2.63;;;23.10;99.90;;;;;;5126890;27;20031;-67
2022/06/26 13:47:27;;;;;;;6.43;2.78;;;23.00;99.90;;;;;;5126979;28;20070;-67
2022/06/26 13:49:52;;;;;;;4.80;2.67;;;23.00;99.90;;;;;;5128181;27;20035;-68
2022/06/26 13:52:18;;;;;;;4.95;3.00;;;23.00;99.90;;;;;;5126488;28;20043;-67
2022/06/26 13:54:43;;;;;;;5.80;2.60;;;22.90;99.90;;;;;;5128051;27;20039;-67
2022/06/26 13:57:09;;;;;;;3.00;2.20;;;23.00;99.90;;;;;;5127932;27;20096;-67
2022/06/26 13:59:35;;;;;;;4.72;2.47;;;22.90;99.90;;;;;;5126678;28;20055;-67
2022/06/26 14:02:01;;;;;;;4.93;3.08;;;22.90;99.90;;;;;;5126341;27;20047;-67
2022/06/26 14:04:27;;;;;;;5.32;2.40;;;22.80;99.90;;;;;;5126426;28;20126;-68
2022/06/26 14:06:53;;;;;;;4.97;2.42;;;22.80;99.90;;;;;;5128083;27;20126;-67
2022/06/26 14:09:18;;;;;;;2.95;2.20;;;22.70;99.90;;;;;;5126440;28;20039;-67
2022/06/26 14:11:44;;;;;;;5.15;2.65;;;22.80;99.90;;;;;;5127657;27;20051;-67
2022/06/26 14:14:10;;;;;;;3.50;2.15;;;22.70;99.90;;;;;;5126059;28;20079;-67
2022/06/26 14:16:35;;;;;;;6.15;2.65;;;22.80;99.90;;;;;;5127879;27;20117;-67